sensor_id;sensor_type;location;lat;lon;timestamp;pressure;altitude;pressure_sealevel;temperature;humidity
28510;BME280;15723;55.684;37.928;2023-03-13T00:00:59;98690.88;;;-2.31;67.83
28510;BME280;15723;55.684;37.928;2023-03-13T00:03:26;98695.00;;;-2.21;68.57
28510;BME280;15723;55.684;37.928;2023-03-13T00:05:57;98712.75;;;-2.23;68.20
28510;BME280;15723;55.684;37.928;2023-03-13T00:08:24;98709.44;;;-2.02;68.41
28510;BME280;15723;55.684;37.928;2023-03-13T00:10:53;98718.72;;;-2.43;67.87
28510;BME280;15723;55.684;37.928;2023-03-13T00:13:19;98697.00;;;-2.01;67.63
28510;BME280;15723;55.684;37.928;2023-03-13T00:15:45;98708.63;;;-2.32;68.05
28510;BME280;15723;55.684;37.928;2023-03-13T00:18:11;98726.31;;;-2.31;68.27
28510;BME280;15723;55.684;37.928;2023-03-13T00:20:38;98723.22;;;-1.91;67.33
28510;BME280;15723;55.684;37.928;2023-03-13T00:23:04;98730.41;;;-1.93;66.94
28510;BME280;15723;55.684;37.928;2023-03-13T00:25:31;98727.69;;;-2.17;66.51
28510;BME280;15723;55.684;37.928;2023-03-13T00:27:57;98735.19;;;-2.32;66.95
28510;BME280;15723;55.684;37.928;2023-03-13T00:30:23;98736.50;;;-2.45;67.26
28510;BME280;15723;55.684;37.928;2023-03-13T00:32:49;98741.53;;;-2.08;67.24
28510;BME280;15723;55.684;37.928;2023-03-13T00:35:16;98746.97;;;-2.11;67.54
28510;BME280;15723;55.684;37.928;2023-03-13T00:37:42;98742.31;;;-2.04;67.18
28510;BME280;15723;55.684;37.928;2023-03-13T00:40:09;98753.41;;;-2.18;66.72
28510;BME280;15723;55.684;37.928;2023-03-13T00:42:35;98765.38;;;-2.05;66.43
28510;BME280;15723;55.684;37.928;2023-03-13T00:45:02;98765.00;;;-2.21;66.33
28510;BME280;15723;55.684;37.928;2023-03-13T00:47:29;98745.19;;;-2.40;66.83
28510;BME280;15723;55.684;37.928;2023-03-13T00:49:55;98766.13;;;-2.01;66.08
28510;BME280;15723;55.684;37.928;2023-03-13T00:52:21;98769.16;;;-2.12;66.10
28510;BME280;15723;55.684;37.928;2023-03-13T00:54:49;98775.13;;;-2.05;65.85
28510;BME280;15723;55.684;37.928;2023-03-13T00:57:16;98767.63;;;-1.93;66.33
28510;BME280;15723;55.684;37.928;2023-03-13T00:59:42;98772.31;;;-2.29;66.45
28510;BME280;15723;55.684;37.928;2023-03-13T01:02:08;98783.34;;;-2.13;66.19
28510;BME280;15723;55.684;37.928;2023-03-13T01:04:35;98795.09;;;-1.92;65.99
28510;BME280;15723;55.684;37.928;2023-03-13T01:07:01;98800.38;;;-1.91;65.37
28510;BME280;15723;55.684;37.928;2023-03-13T01:09:27;98805.75;;;-2.20;66.40
28510;BME280;15723;55.684;37.928;2023-03-13T01:11:53;98803.41;;;-2.03;65.83
28510;BME280;15723;55.684;37.928;2023-03-13T01:14:20;98808.38;;;-1.92;66.23
28510;BME280;15723;55.684;37.928;2023-03-13T01:16:46;98824.59;;;-2.00;66.27
28510;BME280;15723;55.684;37.928;2023-03-13T01:19:14;98821.22;;;-2.05;66.48
28510;BME280;15723;55.684;37.928;2023-03-13T01:21:42;98828.13;;;-1.71;66.51
28510;BME280;15723;55.684;37.928;2023-03-13T01:24:09;98828.59;;;-1.86;66.64
28510;BME280;15723;55.684;37.928;2023-03-13T01:26:35;98834.88;;;-1.89;66.49
28510;BME280;15723;55.684;37.928;2023-03-13T01:29:02;98833.09;;;-1.89;66.84
28510;BME280;15723;55.684;37.928;2023-03-13T01:31:31;98839.06;;;-1.80;66.43
28510;BME280;15723;55.684;37.928;2023-03-13T01:34:01;98842.00;;;-1.90;66.53
28510;BME280;15723;55.684;37.928;2023-03-13T01:36:28;98853.47;;;-1.88;66.67
28510;BME280;15723;55.684;37.928;2023-03-13T01:38:57;98853.03;;;-2.02;66.50
28510;BME280;15723;55.684;37.928;2023-03-13T01:41:24;98860.00;;;-1.98;66.29
28510;BME280;15723;55.684;37.928;2023-03-13T01:43:51;98864.44;;;-2.28;66.40
28510;BME280;15723;55.684;37.928;2023-03-13T01:46:20;98873.72;;;-2.42;66.53
28510;BME280;15723;55.684;37.928;2023-03-13T01:49:03;98884.91;;;-2.31;66.30
28510;BME280;15723;55.684;37.928;2023-03-13T01:54:28;98888.16;;;-2.84;67.51
28510;BME280;15723;55.684;37.928;2023-03-13T01:57:12;98898.31;;;-2.67;66.77
28510;BME280;15723;55.684;37.928;2023-03-13T01:59:43;98905.13;;;-2.57;67.18
28510;BME280;15723;55.684;37.928;2023-03-13T02:02:12;98908.66;;;-2.89;67.29
28510;BME280;15723;55.684;37.928;2023-03-13T02:04:44;98914.59;;;-2.79;67.74
28510;BME280;15723;55.684;37.928;2023-03-13T02:07:26;98919.81;;;-2.76;67.33
28510;BME280;15723;55.684;37.928;2023-03-13T02:09:55;98923.78;;;-2.92;67.58
28510;BME280;15723;55.684;37.928;2023-03-13T02:12:40;98926.91;;;-3.10;68.27
28510;BME280;15723;55.684;37.928;2023-03-13T02:17:34;98937.66;;;-2.81;68.42
28510;BME280;15723;55.684;37.928;2023-03-13T02:20:02;98948.06;;;-3.07;68.87
28510;BME280;15723;55.684;37.928;2023-03-13T02:27:35;98964.69;;;-3.01;68.37
28510;BME280;15723;55.684;37.928;2023-03-13T02:30:06;98970.19;;;-2.73;68.09
28510;BME280;15723;55.684;37.928;2023-03-13T02:32:33;98982.72;;;-2.78;67.78
28510;BME280;15723;55.684;37.928;2023-03-13T02:35:07;98985.97;;;-3.02;68.10
28510;BME280;15723;55.684;37.928;2023-03-13T02:37:35;98988.69;;;-3.04;68.64
28510;BME280;15723;55.684;37.928;2023-03-13T02:40:07;98987.56;;;-2.94;68.06
28510;BME280;15723;55.684;37.928;2023-03-13T02:42:38;99003.53;;;-2.95;68.71
28510;BME280;15723;55.684;37.928;2023-03-13T02:45:06;99002.13;;;-3.11;68.55
28510;BME280;15723;55.684;37.928;2023-03-13T02:47:32;99002.81;;;-3.03;68.86
28510;BME280;15723;55.684;37.928;2023-03-13T02:49:59;99009.69;;;-3.30;68.95
28510;BME280;15723;55.684;37.928;2023-03-13T02:52:32;99014.53;;;-3.12;68.73
28510;BME280;15723;55.684;37.928;2023-03-13T02:55:06;99020.78;;;-3.15;68.56
28510;BME280;15723;55.684;37.928;2023-03-13T02:57:35;99022.94;;;-3.30;69.06
28510;BME280;15723;55.684;37.928;2023-03-13T03:00:02;99022.63;;;-3.17;69.21
28510;BME280;15723;55.684;37.928;2023-03-13T03:02:32;99020.25;;;-3.29;69.03
28510;BME280;15723;55.684;37.928;2023-03-13T03:04:58;99027.94;;;-3.17;68.90
28510;BME280;15723;55.684;37.928;2023-03-13T03:07:25;99032.66;;;-3.29;69.70
28510;BME280;15723;55.684;37.928;2023-03-13T03:09:51;99027.44;;;-3.34;69.29
28510;BME280;15723;55.684;37.928;2023-03-13T03:12:20;99036.97;;;-3.65;69.38
28510;BME280;15723;55.684;37.928;2023-03-13T03:14:47;99043.38;;;-3.34;69.28
28510;BME280;15723;55.684;37.928;2023-03-13T03:17:13;99049.38;;;-3.66;69.53
28510;BME280;15723;55.684;37.928;2023-03-13T03:19:40;99049.44;;;-3.29;69.54
28510;BME280;15723;55.684;37.928;2023-03-13T03:22:09;99050.34;;;-3.30;69.22
28510;BME280;15723;55.684;37.928;2023-03-13T03:24:35;99058.72;;;-3.50;69.67
28510;BME280;15723;55.684;37.928;2023-03-13T03:27:03;99070.81;;;-3.36;69.43
28510;BME280;15723;55.684;37.928;2023-03-13T03:29:36;99058.81;;;-3.53;68.75
28510;BME280;15723;55.684;37.928;2023-03-13T03:32:03;99063.00;;;-3.42;69.08
28510;BME280;15723;55.684;37.928;2023-03-13T03:34:31;99071.03;;;-3.46;69.23
28510;BME280;15723;55.684;37.928;2023-03-13T03:36:58;99069.31;;;-3.48;68.78
28510;BME280;15723;55.684;37.928;2023-03-13T03:39:27;99081.44;;;-3.36;69.03
28510;BME280;15723;55.684;37.928;2023-03-13T03:41:54;99082.72;;;-3.54;69.70
28510;BME280;15723;55.684;37.928;2023-03-13T03:44:21;99087.31;;;-3.62;69.11
28510;BME280;15723;55.684;37.928;2023-03-13T03:46:53;99091.41;;;-3.48;69.22
28510;BME280;15723;55.684;37.928;2023-03-13T03:49:21;99097.72;;;-3.53;69.40
28510;BME280;15723;55.684;37.928;2023-03-13T03:51:47;99094.91;;;-3.46;69.13
28510;BME280;15723;55.684;37.928;2023-03-13T03:54:15;99101.00;;;-3.40;69.18
28510;BME280;15723;55.684;37.928;2023-03-13T03:56:41;99096.09;;;-3.19;68.41
28510;BME280;15723;55.684;37.928;2023-03-13T03:59:09;99096.47;;;-3.37;68.96
28510;BME280;15723;55.684;37.928;2023-03-13T04:01:56;99103.53;;;-3.36;68.74
28510;BME280;15723;55.684;37.928;2023-03-13T04:04:26;99104.91;;;-3.17;68.49
28510;BME280;15723;55.684;37.928;2023-03-13T04:07:00;99105.72;;;-3.13;68.78
28510;BME280;15723;55.684;37.928;2023-03-13T04:09:28;99110.06;;;-3.10;68.13
28510;BME280;15723;55.684;37.928;2023-03-13T04:11:54;99110.59;;;-2.93;68.04
28510;BME280;15723;55.684;37.928;2023-03-13T04:14:21;99106.94;;;-1.82;65.71
28510;BME280;15723;55.684;37.928;2023-03-13T04:16:47;99115.69;;;-1.79;63.54
28510;BME280;15723;55.684;37.928;2023-03-13T04:19:14;99118.38;;;-0.59;63.00
28510;BME280;15723;55.684;37.928;2023-03-13T04:21:42;99117.34;;;0.24;59.13
28510;BME280;15723;55.684;37.928;2023-03-13T04:24:14;99110.91;;;1.46;58.09
28510;BME280;15723;55.684;37.928;2023-03-13T04:26:41;99119.91;;;1.89;57.34
28510;BME280;15723;55.684;37.928;2023-03-13T04:29:08;99124.00;;;1.54;56.67
28510;BME280;15723;55.684;37.928;2023-03-13T04:32:03;99126.91;;;1.48;57.28
28510;BME280;15723;55.684;37.928;2023-03-13T04:34:41;99132.56;;;0.47;55.88
28510;BME280;15723;55.684;37.928;2023-03-13T04:37:18;99137.25;;;1.12;56.62
28510;BME280;15723;55.684;37.928;2023-03-13T04:40:02;99134.19;;;3.10;53.24
28510;BME280;15723;55.684;37.928;2023-03-13T04:42:48;99138.13;;;3.40;52.41
28510;BME280;15723;55.684;37.928;2023-03-13T04:45:32;99143.97;;;3.67;53.33
28510;BME280;15723;55.684;37.928;2023-03-13T04:48:19;99147.00;;;3.03;52.34
28510;BME280;15723;55.684;37.928;2023-03-13T04:51:01;99159.34;;;3.64;50.60
28510;BME280;15723;55.684;37.928;2023-03-13T04:53:44;99156.59;;;3.84;49.58
28510;BME280;15723;55.684;37.928;2023-03-13T04:56:40;99169.06;;;4.73;49.41
28510;BME280;15723;55.684;37.928;2023-03-13T04:59:26;99164.94;;;5.00;47.80
28510;BME280;15723;55.684;37.928;2023-03-13T05:02:19;99171.88;;;6.92;47.07
28510;BME280;15723;55.684;37.928;2023-03-13T05:05:04;99170.59;;;6.39;44.68
28510;BME280;15723;55.684;37.928;2023-03-13T05:07:48;99179.81;;;7.80;42.96
28510;BME280;15723;55.684;37.928;2023-03-13T05:10:41;99171.50;;;8.52;41.64
28510;BME280;15723;55.684;37.928;2023-03-13T05:13:36;99178.94;;;8.88;39.57
28510;BME280;15723;55.684;37.928;2023-03-13T05:16:35;99178.88;;;9.02;40.50
28510;BME280;15723;55.684;37.928;2023-03-13T05:19:09;99192.97;;;9.45;37.69
28510;BME280;15723;55.684;37.928;2023-03-13T05:21:59;99191.84;;;10.59;36.75
28510;BME280;15723;55.684;37.928;2023-03-13T05:24:48;99199.09;;;9.85;36.17
28510;BME280;15723;55.684;37.928;2023-03-13T05:27:38;99211.25;;;9.29;36.79
28510;BME280;15723;55.684;37.928;2023-03-13T05:30:24;99206.38;;;10.34;35.32
28510;BME280;15723;55.684;37.928;2023-03-13T05:33:13;99205.59;;;11.61;32.63
28510;BME280;15723;55.684;37.928;2023-03-13T05:35:59;99211.03;;;12.17;32.31
28510;BME280;15723;55.684;37.928;2023-03-13T05:38:41;99215.25;;;12.10;32.13
28510;BME280;15723;55.684;37.928;2023-03-13T05:41:36;99210.41;;;11.11;31.46
28510;BME280;15723;55.684;37.928;2023-03-13T05:44:22;99212.75;;;11.73;31.60
28510;BME280;15723;55.684;37.928;2023-03-13T05:46:59;99234.31;;;12.10;31.58
28510;BME280;15723;55.684;37.928;2023-03-13T05:49:40;99230.47;;;12.78;30.85
28510;BME280;15723;55.684;37.928;2023-03-13T05:52:25;99226.50;;;13.35;29.91
28510;BME280;15723;55.684;37.928;2023-03-13T05:55:09;99241.13;;;12.04;30.38
28510;BME280;15723;55.684;37.928;2023-03-13T05:58:04;99229.03;;;12.51;30.10
28510;BME280;15723;55.684;37.928;2023-03-13T06:00:51;99239.19;;;12.49;30.88
28510;BME280;15723;55.684;37.928;2023-03-13T06:03:29;99237.19;;;12.63;30.09
28510;BME280;15723;55.684;37.928;2023-03-13T06:05:58;99243.94;;;11.23;31.53
28510;BME280;15723;55.684;37.928;2023-03-13T06:08:37;99236.88;;;13.20;29.07
28510;BME280;15723;55.684;37.928;2023-03-13T06:11:04;99231.63;;;13.28;28.36
28510;BME280;15723;55.684;37.928;2023-03-13T06:13:32;99245.84;;;13.32;27.96
28510;BME280;15723;55.684;37.928;2023-03-13T06:16:04;99248.97;;;13.90;28.61
28510;BME280;15723;55.684;37.928;2023-03-13T06:18:43;99246.78;;;13.84;28.45
28510;BME280;15723;55.684;37.928;2023-03-13T06:21:09;99246.25;;;14.70;27.64
28510;BME280;15723;55.684;37.928;2023-03-13T06:23:36;99251.75;;;14.39;26.30
28510;BME280;15723;55.684;37.928;2023-03-13T06:26:02;99260.94;;;14.38;27.77
28510;BME280;15723;55.684;37.928;2023-03-13T06:28:29;99257.97;;;15.11;26.92
28510;BME280;15723;55.684;37.928;2023-03-13T06:31:03;99263.97;;;14.85;25.18
28510;BME280;15723;55.684;37.928;2023-03-13T06:33:30;99266.91;;;15.61;25.47
28510;BME280;15723;55.684;37.928;2023-03-13T06:35:56;99269.84;;;16.34;24.86
28510;BME280;15723;55.684;37.928;2023-03-13T06:38:26;99266.31;;;15.09;25.15
28510;BME280;15723;55.684;37.928;2023-03-13T06:40:52;99271.06;;;14.97;26.53
28510;BME280;15723;55.684;37.928;2023-03-13T06:43:19;99285.47;;;13.36;27.06
28510;BME280;15723;55.684;37.928;2023-03-13T06:45:45;99278.75;;;14.02;26.69
28510;BME280;15723;55.684;37.928;2023-03-13T06:48:11;99276.66;;;15.44;25.87
28510;BME280;15723;55.684;37.928;2023-03-13T06:50:38;99294.28;;;14.73;26.20
28510;BME280;15723;55.684;37.928;2023-03-13T06:53:05;99300.22;;;16.50;24.90
28510;BME280;15723;55.684;37.928;2023-03-13T06:55:31;99292.19;;;14.95;26.14
28510;BME280;15723;55.684;37.928;2023-03-13T06:57:58;99293.78;;;15.17;25.25
28510;BME280;15723;55.684;37.928;2023-03-13T07:00:24;99303.75;;;16.60;24.76
28510;BME280;15723;55.684;37.928;2023-03-13T07:02:50;99293.28;;;16.18;24.01
28510;BME280;15723;55.684;37.928;2023-03-13T07:05:17;99297.19;;;17.43;22.62
28510;BME280;15723;55.684;37.928;2023-03-13T07:07:43;99305.53;;;16.51;24.19
28510;BME280;15723;55.684;37.928;2023-03-13T07:10:10;99308.06;;;17.00;23.30
28510;BME280;15723;55.684;37.928;2023-03-13T07:12:37;99315.97;;;17.03;22.86
28510;BME280;15723;55.684;37.928;2023-03-13T07:15:04;99320.59;;;15.72;23.96
28510;BME280;15723;55.684;37.928;2023-03-13T07:17:30;99321.19;;;16.78;23.99
28510;BME280;15723;55.684;37.928;2023-03-13T07:19:57;99319.47;;;16.95;22.85
28510;BME280;15723;55.684;37.928;2023-03-13T07:22:23;99337.69;;;14.66;24.68
28510;BME280;15723;55.684;37.928;2023-03-13T07:24:49;99320.69;;;17.10;24.75
28510;BME280;15723;55.684;37.928;2023-03-13T07:27:16;99328.81;;;15.62;24.09
28510;BME280;15723;55.684;37.928;2023-03-13T07:29:45;99343.84;;;16.98;22.62
28510;BME280;15723;55.684;37.928;2023-03-13T07:32:12;99342.06;;;15.67;25.92
28510;BME280;15723;55.684;37.928;2023-03-13T07:34:38;99344.84;;;16.23;25.60
28510;BME280;15723;55.684;37.928;2023-03-13T07:37:04;99352.31;;;15.05;23.92
28510;BME280;15723;55.684;37.928;2023-03-13T07:39:30;99359.78;;;14.53;24.52
28510;BME280;15723;55.684;37.928;2023-03-13T07:41:56;99366.53;;;12.68;26.62
28510;BME280;15723;55.684;37.928;2023-03-13T07:44:23;99361.78;;;13.36;26.67
28510;BME280;15723;55.684;37.928;2023-03-13T07:46:49;99381.13;;;12.45;26.59
28510;BME280;15723;55.684;37.928;2023-03-13T07:49:15;99393.56;;;13.58;27.20
28510;BME280;15723;55.684;37.928;2023-03-13T07:51:42;99380.31;;;12.99;26.34
28510;BME280;15723;55.684;37.928;2023-03-13T07:54:08;99394.50;;;11.55;28.90
28510;BME280;15723;55.684;37.928;2023-03-13T07:56:34;99400.19;;;10.92;29.36
28510;BME280;15723;55.684;37.928;2023-03-13T07:59:00;99400.56;;;9.73;30.26
28510;BME280;15723;55.684;37.928;2023-03-13T08:01:27;99401.53;;;9.72;30.91
28510;BME280;15723;55.684;37.928;2023-03-13T08:03:53;99414.38;;;10.08;31.73
28510;BME280;15723;55.684;37.928;2023-03-13T08:06:23;99415.47;;;9.26;32.85
28510;BME280;15723;55.684;37.928;2023-03-13T08:08:50;99415.25;;;9.56;32.17
28510;BME280;15723;55.684;37.928;2023-03-13T08:11:19;99410.09;;;8.71;33.18
28510;BME280;15723;55.684;37.928;2023-03-13T08:13:47;99414.22;;;9.84;32.40
28510;BME280;15723;55.684;37.928;2023-03-13T08:16:20;99406.59;;;8.83;33.33
28510;BME280;15723;55.684;37.928;2023-03-13T08:18:48;99422.59;;;8.45;34.22
28510;BME280;15723;55.684;37.928;2023-03-13T08:21:23;99429.94;;;7.09;34.68
28510;BME280;15723;55.684;37.928;2023-03-13T08:23:54;99429.16;;;7.52;36.17
28510;BME280;15723;55.684;37.928;2023-03-13T08:26:23;99428.81;;;7.13;35.91
28510;BME280;15723;55.684;37.928;2023-03-13T08:28:54;99435.59;;;7.80;35.27
28510;BME280;15723;55.684;37.928;2023-03-13T08:31:56;99429.13;;;7.22;35.44
28510;BME280;15723;55.684;37.928;2023-03-13T08:34:23;99434.69;;;7.65;35.24
28510;BME280;15723;55.684;37.928;2023-03-13T08:36:49;99423.59;;;9.66;33.14
28510;BME280;15723;55.684;37.928;2023-03-13T08:39:18;99432.56;;;9.54;33.51
28510;BME280;15723;55.684;37.928;2023-03-13T08:41:44;99437.19;;;9.12;33.14
28510;BME280;15723;55.684;37.928;2023-03-13T08:44:13;99435.63;;;8.53;34.96
28510;BME280;15723;55.684;37.928;2023-03-13T08:46:39;99433.22;;;8.62;33.90
28510;BME280;15723;55.684;37.928;2023-03-13T08:49:07;99429.63;;;9.44;33.80
28510;BME280;15723;55.684;37.928;2023-03-13T08:51:33;99440.75;;;8.57;35.37
28510;BME280;15723;55.684;37.928;2023-03-13T08:54:01;99433.69;;;8.55;34.48
28510;BME280;15723;55.684;37.928;2023-03-13T08:56:29;99452.38;;;7.71;36.48
28510;BME280;15723;55.684;37.928;2023-03-13T08:59:00;99445.97;;;8.46;36.11
28510;BME280;15723;55.684;37.928;2023-03-13T09:01:31;99447.13;;;7.98;37.25
28510;BME280;15723;55.684;37.928;2023-03-13T09:03:57;99448.69;;;8.02;35.99
28510;BME280;15723;55.684;37.928;2023-03-13T09:06:25;99452.44;;;7.85;36.50
28510;BME280;15723;55.684;37.928;2023-03-13T09:08:51;99457.28;;;7.94;37.17
28510;BME280;15723;55.684;37.928;2023-03-13T09:11:19;99461.50;;;7.84;37.46
28510;BME280;15723;55.684;37.928;2023-03-13T09:13:48;99471.41;;;6.59;39.21
28510;BME280;15723;55.684;37.928;2023-03-13T09:16:20;99463.38;;;7.22;39.93
28510;BME280;15723;55.684;37.928;2023-03-13T09:18:47;99471.63;;;6.72;40.61
28510;BME280;15723;55.684;37.928;2023-03-13T09:21:19;99478.88;;;6.38;40.47
28510;BME280;15723;55.684;37.928;2023-03-13T09:23:47;99482.41;;;6.72;41.42
28510;BME280;15723;55.684;37.928;2023-03-13T09:26:13;99485.81;;;6.91;40.75
28510;BME280;15723;55.684;37.928;2023-03-13T09:28:40;99497.22;;;6.80;40.92
28510;BME280;15723;55.684;37.928;2023-03-13T09:31:22;99493.59;;;5.98;42.48
28510;BME280;15723;55.684;37.928;2023-03-13T09:33:50;99493.50;;;6.66;40.22
28510;BME280;15723;55.684;37.928;2023-03-13T09:36:18;99493.75;;;6.94;40.81
28510;BME280;15723;55.684;37.928;2023-03-13T09:38:45;99511.00;;;6.58;40.90
28510;BME280;15723;55.684;37.928;2023-03-13T09:43:49;99504.94;;;5.69;43.01
28510;BME280;15723;55.684;37.928;2023-03-13T09:46:48;99491.72;;;5.81;41.90
28510;BME280;15723;55.684;37.928;2023-03-13T09:49:30;99513.34;;;6.32;43.04
28510;BME280;15723;55.684;37.928;2023-03-13T09:52:21;99507.66;;;6.38;41.11
28510;BME280;15723;55.684;37.928;2023-03-13T09:54:57;99516.59;;;6.38;41.73
28510;BME280;15723;55.684;37.928;2023-03-13T09:57:55;99522.00;;;6.38;41.95
28510;BME280;15723;55.684;37.928;2023-03-13T10:00:28;99520.22;;;6.04;42.55
28510;BME280;15723;55.684;37.928;2023-03-13T10:03:02;99534.72;;;6.69;41.77
28510;BME280;15723;55.684;37.928;2023-03-13T10:05:30;99535.28;;;5.72;42.99
28510;BME280;15723;55.684;37.928;2023-03-13T10:11:00;99526.13;;;5.40;44.15
28510;BME280;15723;55.684;37.928;2023-03-13T10:16:30;99532.91;;;5.83;43.91
28510;BME280;15723;55.684;37.928;2023-03-13T10:19:12;99538.72;;;5.57;44.34
28510;BME280;15723;55.684;37.928;2023-03-13T10:21:42;99539.63;;;5.75;43.62
28510;BME280;15723;55.684;37.928;2023-03-13T10:24:24;99547.72;;;5.39;46.02
28510;BME280;15723;55.684;37.928;2023-03-13T10:26:52;99548.72;;;6.08;nan
28510;BME280;15723;55.684;37.928;2023-03-13T10:29:23;99552.78;;;5.63;44.80
28510;BME280;15723;55.684;37.928;2023-03-13T10:31:54;99561.09;;;5.40;45.80
28510;BME280;15723;55.684;37.928;2023-03-13T10:34:23;99552.47;;;5.70;45.19
28510;BME280;15723;55.684;37.928;2023-03-13T10:36:56;99560.28;;;5.93;43.91
28510;BME280;15723;55.684;37.928;2023-03-13T10:39:25;99557.50;;;5.03;46.20
28510;BME280;15723;55.684;37.928;2023-03-13T10:41:57;99566.22;;;5.09;45.75
28510;BME280;15723;55.684;37.928;2023-03-13T10:44:31;99568.38;;;4.43;46.12
28510;BME280;15723;55.684;37.928;2023-03-13T10:47:00;99575.22;;;5.08;46.30
28510;BME280;15723;55.684;37.928;2023-03-13T10:49:28;99579.75;;;4.88;45.29
28510;BME280;15723;55.684;37.928;2023-03-13T10:52:01;99587.81;;;4.88;45.83
28510;BME280;15723;55.684;37.928;2023-03-13T10:54:34;99583.75;;;4.39;46.50
28510;BME280;15723;55.684;37.928;2023-03-13T10:57:29;99592.31;;;4.88;46.59
28510;BME280;15723;55.684;37.928;2023-03-13T10:59:57;99604.94;;;4.47;47.15
28510;BME280;15723;55.684;37.928;2023-03-13T11:02:33;99574.38;;;4.68;46.44
28510;BME280;15723;55.684;37.928;2023-03-13T11:05:43;99588.13;;;4.81;46.67
28510;BME280;15723;55.684;37.928;2023-03-13T11:07:52;99605.47;;;5.13;45.93
28510;BME280;15723;55.684;37.928;2023-03-13T11:10:23;99567.09;;;4.31;48.26
28510;BME280;15723;55.684;37.928;2023-03-13T11:12:52;99604.38;;;4.38;48.44
28510;BME280;15723;55.684;37.928;2023-03-13T11:20:44;99616.00;;;4.98;46.78
28510;BME280;15723;55.684;37.928;2023-03-13T11:26:22;99641.72;;;3.38;48.61
28510;BME280;15723;55.684;37.928;2023-03-13T11:31:43;99640.13;;;3.98;49.08
28510;BME280;15723;55.684;37.928;2023-03-13T11:34:51;99634.78;;;4.80;48.72
28510;BME280;15723;55.684;37.928;2023-03-13T11:37:19;99644.28;;;4.27;49.19
28510;BME280;15723;55.684;37.928;2023-03-13T11:42:41;99652.94;;;4.75;47.94
28510;BME280;15723;55.684;37.928;2023-03-13T11:56:35;99678.97;;;4.74;48.50
28510;BME280;15723;55.684;37.928;2023-03-13T11:59:29;99668.88;;;4.79;48.35
28510;BME280;15723;55.684;37.928;2023-03-13T12:02:04;99677.75;;;5.01;48.56
28510;BME280;15723;55.684;37.928;2023-03-13T12:04:42;99675.22;;;5.17;46.92
28510;BME280;15723;55.684;37.928;2023-03-13T12:07:29;99677.53;;;5.06;48.34
28510;BME280;15723;55.684;37.928;2023-03-13T12:10:03;99685.69;;;4.64;51.05
28510;BME280;15723;55.684;37.928;2023-03-13T12:15:39;99683.19;;;4.39;50.73
28510;BME280;15723;55.684;37.928;2023-03-13T12:18:34;99689.31;;;4.43;49.83
28510;BME280;15723;55.684;37.928;2023-03-13T12:26:30;99705.53;;;2.56;56.39
28510;BME280;15723;55.684;37.928;2023-03-13T12:32:02;99722.31;;;2.87;62.70
28510;BME280;15723;55.684;37.928;2023-03-13T12:34:37;99698.16;;;4.24;62.53
28510;BME280;15723;55.684;37.928;2023-03-13T12:40:00;99702.25;;;3.67;59.89
28510;BME280;15723;55.684;37.928;2023-03-13T12:44:56;99705.22;;;3.83;57.85
28510;BME280;15723;55.684;37.928;2023-03-13T12:50:36;99701.78;;;3.80;56.52
28510;BME280;15723;55.684;37.928;2023-03-13T12:53:13;99717.91;;;3.33;56.01
28510;BME280;15723;55.684;37.928;2023-03-13T12:59:01;99722.88;;;2.95;57.58
28510;BME280;15723;55.684;37.928;2023-03-13T13:01:35;99733.19;;;2.82;56.09
28510;BME280;15723;55.684;37.928;2023-03-13T13:04:13;99735.06;;;2.80;56.58
28510;BME280;15723;55.684;37.928;2023-03-13T13:09:25;99735.16;;;4.18;53.14
28510;BME280;15723;55.684;37.928;2023-03-13T13:11:53;99737.28;;;2.93;53.22
28510;BME280;15723;55.684;37.928;2023-03-13T13:32:45;99746.50;;;3.10;49.78
28510;BME280;15723;55.684;37.928;2023-03-13T13:37:41;99752.75;;;3.81;49.27
28510;BME280;15723;55.684;37.928;2023-03-13T13:40:27;99748.69;;;3.48;49.00
28510;BME280;15723;55.684;37.928;2023-03-13T13:43:03;99749.13;;;3.82;49.88
28510;BME280;15723;55.684;37.928;2023-03-13T13:45:37;99752.41;;;4.12;49.71
28510;BME280;15723;55.684;37.928;2023-03-13T13:48:25;99746.47;;;4.26;48.68
28510;BME280;15723;55.684;37.928;2023-03-13T13:56:51;99767.00;;;2.35;53.71
28510;BME280;15723;55.684;37.928;2023-03-13T13:59:23;99772.06;;;3.44;51.58
28510;BME280;15723;55.684;37.928;2023-03-13T14:04:36;99773.69;;;2.75;50.52
28510;BME280;15723;55.684;37.928;2023-03-13T14:07:05;99777.44;;;2.69;52.65
28510;BME280;15723;55.684;37.928;2023-03-13T14:09:48;99787.47;;;3.14;49.99
28510;BME280;15723;55.684;37.928;2023-03-13T14:12:27;99780.22;;;1.56;52.64
28510;BME280;15723;55.684;37.928;2023-03-13T14:15:15;99781.19;;;1.81;52.27
28510;BME280;15723;55.684;37.928;2023-03-13T14:22:49;99795.94;;;1.96;51.37
28510;BME280;15723;55.684;37.928;2023-03-13T14:25:16;99797.28;;;1.52;50.77
28510;BME280;15723;55.684;37.928;2023-03-13T14:27:43;99809.28;;;1.05;49.47
28510;BME280;15723;55.684;37.928;2023-03-13T14:30:11;99810.16;;;1.05;51.23
28510;BME280;15723;55.684;37.928;2023-03-13T14:32:39;99815.44;;;1.08;50.83
28510;BME280;15723;55.684;37.928;2023-03-13T14:35:07;99814.28;;;1.18;51.73
28510;BME280;15723;55.684;37.928;2023-03-13T14:37:44;99814.16;;;1.23;51.39
28510;BME280;15723;55.684;37.928;2023-03-13T14:40:25;99816.78;;;1.24;51.76
28510;BME280;15723;55.684;37.928;2023-03-13T14:42:57;99811.16;;;1.34;50.12
28510;BME280;15723;55.684;37.928;2023-03-13T14:45:33;99816.75;;;1.26;51.06
28510;BME280;15723;55.684;37.928;2023-03-13T14:48:09;99823.97;;;1.22;52.21
28510;BME280;15723;55.684;37.928;2023-03-13T14:50:38;99828.56;;;1.17;53.30
28510;BME280;15723;55.684;37.928;2023-03-13T14:53:12;99835.41;;;1.28;51.96
28510;BME280;15723;55.684;37.928;2023-03-13T14:55:41;99841.41;;;1.36;53.08
28510;BME280;15723;55.684;37.928;2023-03-13T14:58:30;99839.28;;;0.83;50.97
28510;BME280;15723;55.684;37.928;2023-03-13T15:00:56;99836.06;;;1.36;51.25
28510;BME280;15723;55.684;37.928;2023-03-13T15:03:30;99843.47;;;0.93;51.89
28510;BME280;15723;55.684;37.928;2023-03-13T15:08:41;99844.88;;;0.73;52.00